Aviation Digital Data Service (ADDS)

Output produced by METARs form (0109 UTC 12 May 2021)
found at http://www.aviationweather.gov/metar/data/
 
METAR text: LFCK 120100Z AUTO 09002KT CAVOK 05/05 Q1019
Conditions at: LFCK (CASTRES-MAZAMET , FR) observed 0100 UTC 12 May 2021
Temperature: 5.0°C (41°F)
Dewpoint: 5.0°C (41°F) [RH = 100%]
Pressure (altimeter): 30.09 inches Hg (1019.0 mb)
Winds: from the E (90 degrees) at 2 MPH (2 knots; 1.0 m/s)
Visibility: 6 or more miles (10+ km)
Ceiling: ceiling and visibility are OK
Clouds: unknown
Weather: no significant weather observed at this time

Forecast for: LFCK (CASTRES-MAZAMET , FR)
Text: TAF LFCK 111700Z 1118/1203 28008KT 9999 FEW030CB SCT060
Forecast period: 1800 UTC 11 May 2021 to 0300 UTC 12 May 2021
Forecast type: FROM: standard forecast or significant change
Winds: from the W (280 degrees) at 9 MPH (8 knots; 4.1 m/s)
Visibility: 6 or more miles (10+ km)
Ceiling: at least 12,000 feet AGL
Clouds: few clouds at 3000 feet AGL
scattered clouds at 6000 feet AGL
Weather: no significant weather forecast for this period
Text: BECMG 1118/1120 CAVOK
Forecast period: 1800 UTC 11 May 2021 to 0300 UTC 12 May 2021
Forecast type: BECOMING: Conditions expected to become as follows by 2000 UTC 11 May 2021
Winds: from the W (280 degrees) at 9 MPH (8 knots; 4.1 m/s)
Visibility: 6 or more miles (10+ km)
Ceiling: unknown
Clouds: missing
Weather: NSW  (no significant weather)